createdAt,value
2023-01-09T00:02:35.588Z,8.50
2023-01-09T00:06:43.352Z,8.50
2023-01-09T00:10:46.622Z,8.50
2023-01-09T00:14:49.605Z,8.50
2023-01-09T00:18:53.299Z,8.50
2023-01-09T00:22:57.728Z,8.60
2023-01-09T00:27:00.671Z,8.60
2023-01-09T00:31:05.412Z,8.50
2023-01-09T00:35:11.070Z,8.50
2023-01-09T00:39:15.439Z,8.60
2023-01-09T00:43:19.312Z,8.60
2023-01-09T00:47:25.742Z,8.60
2023-01-09T00:51:29.099Z,8.60
2023-01-09T00:55:35.265Z,8.60
2023-01-09T00:59:38.324Z,8.60
2023-01-09T01:03:41.294Z,8.70
2023-01-09T01:07:45.008Z,8.70
2023-01-09T01:11:49.339Z,8.80
2023-01-09T01:15:52.353Z,8.80
2023-01-09T01:19:55.385Z,8.80
2023-01-09T01:23:58.997Z,8.90
2023-01-09T01:28:03.337Z,8.90
2023-01-09T01:32:06.362Z,9.00
2023-01-09T01:36:10.423Z,9.00
2023-01-09T01:40:14.047Z,9.10
2023-01-09T01:44:54.193Z,9.10
2023-01-09T01:49:02.214Z,9.10
2023-01-09T01:53:10.911Z,9.10
2023-01-09T01:57:14.141Z,9.10
2023-01-09T02:01:17.768Z,9.10
2023-01-09T02:05:22.313Z,9.10
2023-01-09T02:09:26.877Z,9.10
2023-01-09T02:13:30.808Z,9.00
2023-01-09T02:18:12.614Z,9.00
2023-01-09T02:22:37.293Z,9.00
2023-01-09T02:27:04.398Z,9.00
2023-01-09T02:31:14.710Z,9.00
2023-01-09T02:35:40.470Z,9.00
2023-01-09T02:39:52.161Z,9.00
2023-01-09T02:44:18.743Z,9.00
2023-01-09T02:48:23.181Z,9.00
2023-01-09T02:52:37.354Z,8.90
2023-01-09T02:56:57.230Z,8.80
2023-01-09T03:01:06.943Z,8.80
2023-01-09T03:05:18.317Z,8.70
2023-01-09T03:09:24.198Z,8.70
2023-01-09T03:13:31.049Z,8.60
2023-01-09T03:17:38.978Z,8.60
2023-01-09T03:21:44.835Z,8.50
2023-01-09T03:25:47.816Z,8.50
2023-01-09T03:29:51.243Z,8.40
2023-01-09T03:33:54.595Z,8.40
2023-01-09T03:37:59.361Z,8.30
2023-01-09T03:42:02.359Z,8.30
2023-01-09T03:46:05.821Z,8.30
2023-01-09T03:50:09.974Z,8.30
2023-01-09T03:54:14.441Z,8.30
2023-01-09T03:58:18.325Z,8.20
2023-01-09T04:02:21.298Z,8.20
2023-01-09T04:06:24.294Z,8.20
2023-01-09T04:10:28.746Z,8.20
2023-01-09T04:14:31.719Z,8.20
2023-01-09T04:18:34.772Z,8.20
2023-01-09T04:22:37.844Z,8.20
2023-01-09T04:26:42.342Z,8.20
2023-01-09T04:30:45.771Z,8.20
2023-01-09T04:34:49.057Z,8.20
2023-01-09T04:38:52.085Z,8.20
2023-01-09T04:42:56.477Z,8.20
2023-01-09T04:46:59.602Z,8.20
2023-01-09T04:51:02.640Z,8.10
2023-01-09T04:55:07.526Z,8.10
2023-01-09T04:59:12.126Z,8.10
2023-01-09T05:03:15.105Z,8.10
2023-01-09T05:07:18.095Z,8.10
2023-01-09T05:11:21.248Z,8.10
2023-01-09T05:15:28.256Z,8.10
2023-01-09T05:19:31.253Z,8.00
2023-01-09T05:23:34.286Z,8.00
2023-01-09T05:27:37.274Z,8.00
2023-01-09T05:31:41.642Z,8.00
2023-01-09T05:35:44.744Z,8.00
2023-01-09T05:39:47.711Z,8.00
2023-01-09T05:43:50.747Z,7.90
2023-01-09T05:47:55.091Z,7.90
2023-01-09T05:51:58.221Z,7.90
2023-01-09T05:56:01.247Z,7.80
2023-01-09T06:00:04.787Z,7.80
2023-01-09T06:04:09.111Z,7.80
2023-01-09T06:08:12.293Z,7.70
2023-01-09T06:12:15.307Z,7.60
2023-01-09T06:16:18.400Z,7.60
2023-01-09T06:20:22.770Z,7.50
2023-01-09T06:24:25.862Z,7.50
2023-01-09T06:28:28.869Z,7.40
2023-01-09T06:32:31.874Z,7.30
2023-01-09T06:36:36.486Z,7.20
2023-01-09T06:40:39.478Z,7.20
2023-01-09T06:44:42.655Z,7.10
2023-01-09T06:48:45.675Z,7.10
2023-01-09T06:52:50.032Z,7.00
2023-01-09T06:56:52.847Z,7.00
2023-01-09T07:00:56.294Z,6.90
2023-01-09T07:04:59.306Z,6.80
2023-01-09T07:09:04.552Z,6.80
2023-01-09T07:13:07.528Z,6.70
2023-01-09T07:17:12.959Z,6.70
2023-01-09T07:21:15.924Z,6.70
2023-01-09T07:25:20.374Z,6.60
2023-01-09T07:29:23.344Z,6.60
2023-01-09T07:33:26.344Z,6.60
2023-01-09T07:37:29.320Z,6.60
2023-01-09T07:41:33.609Z,6.60
2023-01-09T07:45:37.595Z,6.50
2023-01-09T07:49:40.575Z,6.50
2023-01-09T07:53:43.367Z,6.50
2023-01-09T07:57:50.280Z,6.50
2023-01-09T08:01:53.090Z,6.50
2023-01-09T08:05:55.878Z,6.50
2023-01-09T08:09:58.683Z,6.50
2023-01-09T08:14:03.038Z,6.60
2023-01-09T08:18:05.889Z,6.60
2023-01-09T08:22:08.709Z,6.70
2023-01-09T08:26:11.592Z,6.70
2023-01-09T08:30:16.630Z,6.70
2023-01-09T08:34:19.439Z,6.80
2023-01-09T08:38:22.608Z,6.80
2023-01-09T08:42:42.956Z,6.90
2023-01-09T08:47:04.873Z,6.90
2023-01-09T08:51:07.673Z,7.00
2023-01-09T08:55:10.717Z,7.10
2023-01-09T08:59:13.678Z,7.10
2023-01-09T09:03:17.909Z,7.20
2023-01-09T09:07:26.433Z,7.30
2023-01-09T09:11:29.215Z,7.30
2023-01-09T09:15:32.019Z,7.30
2023-01-09T09:19:36.185Z,7.40
2023-01-09T09:23:39.002Z,7.40
2023-01-09T09:27:42.358Z,7.50
2023-01-09T09:31:45.153Z,7.60
2023-01-09T09:35:49.310Z,7.70
2023-01-09T09:39:52.175Z,7.70
2023-01-09T09:44:17.171Z,7.80
2023-01-09T09:48:24.949Z,7.80
2023-01-09T09:52:35.715Z,7.90
2023-01-09T09:56:42.592Z,8.00
2023-01-09T10:00:45.400Z,8.00
2023-01-09T10:04:51.717Z,8.00
2023-01-09T10:09:01.443Z,8.10
2023-01-09T10:13:25.425Z,8.50
2023-01-09T10:17:44.448Z,9.20
2023-01-09T10:21:53.700Z,9.80
2023-01-09T10:26:01.597Z,10.00
2023-01-09T10:30:08.617Z,10.10
2023-01-09T10:34:15.464Z,10.00
2023-01-09T10:38:21.365Z,9.90
2023-01-09T10:42:30.679Z,9.80
2023-01-09T10:46:37.561Z,9.70
2023-01-09T10:50:42.797Z,9.70
2023-01-09T10:54:49.670Z,9.70
2023-01-09T10:58:55.065Z,9.90
2023-01-09T11:02:57.982Z,10.30
2023-01-09T11:07:01.825Z,10.60
2023-01-09T11:11:04.884Z,10.70
2023-01-09T11:15:31.198Z,10.60
2023-01-09T11:19:34.033Z,10.50
2023-01-09T11:23:36.837Z,10.40
2023-01-09T11:27:39.630Z,10.30
2023-01-09T11:31:44.871Z,10.30
2023-01-09T11:35:55.981Z,10.20
2023-01-09T11:39:59.449Z,10.10
2023-01-09T11:44:03.591Z,10.00
2023-01-09T11:48:17.014Z,9.90
2023-01-09T11:52:22.222Z,9.80
2023-01-09T11:56:25.145Z,9.80
2023-01-09T12:00:29.762Z,9.70
2023-01-09T12:04:36.282Z,9.60
2023-01-09T12:08:48.692Z,9.60
2023-01-09T12:12:54.762Z,9.60
2023-01-09T12:17:05.390Z,9.60
2023-01-09T12:21:21.725Z,9.50
2023-01-09T12:25:30.842Z,9.40
2023-01-09T12:29:52.063Z,9.40
2023-01-09T12:33:58.625Z,9.40
2023-01-09T12:38:25.901Z,9.30
2023-01-09T12:42:41.203Z,9.30
2023-01-09T12:46:48.877Z,9.30
2023-01-09T12:51:07.345Z,9.30
2023-01-09T12:55:15.715Z,9.30
2023-01-09T12:59:30.213Z,9.30
2023-01-09T13:03:35.402Z,9.30
2023-01-09T13:07:41.549Z,9.30
2023-01-09T13:11:48.202Z,9.30
2023-01-09T13:15:54.024Z,9.30
2023-01-09T13:19:56.947Z,9.40
2023-01-09T13:24:02.832Z,9.40
2023-01-09T13:28:08.750Z,9.40
2023-01-09T13:32:19.428Z,9.30
2023-01-09T13:36:26.980Z,9.30
2023-01-09T13:40:30.524Z,9.30
2023-01-09T13:44:34.561Z,9.20
2023-01-09T13:48:42.896Z,9.20
2023-01-09T13:52:45.890Z,9.10
2023-01-09T13:57:07.133Z,9.10
2023-01-09T14:01:24.932Z,9.00
2023-01-09T14:05:46.500Z,9.00
2023-01-09T14:09:52.789Z,9.00
2023-01-09T14:14:04.497Z,8.90
2023-01-09T14:18:08.922Z,8.90
2023-01-09T14:22:24.916Z,8.90
2023-01-09T14:26:43.715Z,8.90
2023-01-09T14:31:01.387Z,8.90
2023-01-09T14:35:06.640Z,8.80
2023-01-09T14:39:10.610Z,8.80
2023-01-09T14:43:20.081Z,8.70
2023-01-09T14:47:29.398Z,8.60
2023-01-09T14:51:33.803Z,8.50
2023-01-09T14:55:40.987Z,8.40
2023-01-09T14:59:56.780Z,8.30
2023-01-09T15:04:01.689Z,8.10
2023-01-09T15:08:05.162Z,8.00
2023-01-09T15:12:09.763Z,7.90
2023-01-09T15:16:17.544Z,7.90
2023-01-09T15:20:24.987Z,7.80
2023-01-09T15:24:29.628Z,7.80
2023-01-09T15:28:34.244Z,7.70
2023-01-09T15:32:39.827Z,7.70
2023-01-09T15:36:42.700Z,7.70
2023-01-09T15:40:53.336Z,7.60
2023-01-09T15:44:58.550Z,7.60
2023-01-09T15:49:02.953Z,7.60
2023-01-09T15:53:05.911Z,7.60
2023-01-09T15:57:30.220Z,7.60
2023-01-09T16:01:33.801Z,7.50
2023-01-09T16:05:41.294Z,7.50
2023-01-09T16:09:45.110Z,7.50
2023-01-09T16:13:48.066Z,7.50
2023-01-09T16:18:07.035Z,7.50
2023-01-09T16:22:20.686Z,7.50
2023-01-09T16:26:25.339Z,7.50
2023-01-09T16:30:28.453Z,7.50
2023-01-09T16:34:31.686Z,7.50
2023-01-09T16:38:35.883Z,7.50
2023-01-09T16:42:56.244Z,7.50
2023-01-09T16:46:59.881Z,7.50
2023-01-09T16:51:02.818Z,7.40
2023-01-09T16:55:07.512Z,7.40
2023-01-09T16:59:12.749Z,7.40
2023-01-09T17:03:15.730Z,7.40
2023-01-09T17:07:20.073Z,7.40
2023-01-09T17:11:25.266Z,7.30
2023-01-09T17:15:28.254Z,7.30
2023-01-09T17:19:31.028Z,7.30
2023-01-09T17:23:34.477Z,7.30
2023-01-09T17:27:56.487Z,7.30
2023-01-09T17:31:59.379Z,7.20
2023-01-09T17:36:02.718Z,7.20
2023-01-09T17:40:06.686Z,7.20
2023-01-09T17:44:11.855Z,7.20
2023-01-09T17:48:15.959Z,7.20
2023-01-09T17:52:18.770Z,7.20
2023-01-09T17:56:23.144Z,7.20
2023-01-09T18:00:28.939Z,7.10
2023-01-09T18:04:31.752Z,7.20
2023-01-09T18:08:34.542Z,7.20
2023-01-09T18:12:37.380Z,7.20
2023-01-09T18:16:41.593Z,7.20
2023-01-09T18:20:44.845Z,7.20
2023-01-09T18:24:47.652Z,7.30
2023-01-09T18:28:51.837Z,7.30
2023-01-09T18:32:55.964Z,7.30
2023-01-09T18:36:58.838Z,7.30
2023-01-09T18:41:01.731Z,7.30
2023-01-09T18:45:04.759Z,7.30
2023-01-09T18:49:10.630Z,7.30
2023-01-09T18:53:13.514Z,7.40
2023-01-09T18:57:16.338Z,7.40
2023-01-09T19:01:19.559Z,7.40
2023-01-09T19:05:25.432Z,7.40
2023-01-09T19:09:28.259Z,7.40
2023-01-09T19:13:31.608Z,7.40
2023-01-09T19:17:34.429Z,7.40
2023-01-09T19:21:38.606Z,7.30
2023-01-09T19:25:41.520Z,7.30
2023-01-09T19:29:44.329Z,7.30
2023-01-09T19:33:47.166Z,7.40
2023-01-09T19:37:51.462Z,7.30
2023-01-09T19:41:54.281Z,7.30
2023-01-09T19:45:57.321Z,7.40
2023-01-09T19:50:00.175Z,7.40
2023-01-09T19:58:07.017Z,7.40
2023-01-09T20:02:10.291Z,7.40
2023-01-09T20:06:14.483Z,7.40
2023-01-09T20:10:18.895Z,7.40
2023-01-09T20:14:22.577Z,7.40
2023-01-09T20:18:25.434Z,7.40
2023-01-09T20:22:28.280Z,7.40
2023-01-09T20:26:32.564Z,7.40
2023-01-09T20:30:35.415Z,7.40
2023-01-09T20:34:38.354Z,7.40
2023-01-09T20:38:42.196Z,7.40
2023-01-09T20:42:46.367Z,7.30
2023-01-09T20:46:49.453Z,7.30
2023-01-09T20:50:52.244Z,7.30
2023-01-09T20:54:55.094Z,7.30
2023-01-09T20:59:00.174Z,7.30
2023-01-09T21:03:04.276Z,7.30
2023-01-09T21:07:07.098Z,7.20
2023-01-09T21:11:10.654Z,7.20
2023-01-09T21:15:17.867Z,7.20
2023-01-09T21:19:21.475Z,7.20
2023-01-09T21:23:24.775Z,7.20
2023-01-09T21:27:28.956Z,7.20
2023-01-09T21:31:35.069Z,7.20
2023-01-09T21:35:38.374Z,7.20
2023-01-09T21:39:41.144Z,7.20
2023-01-09T21:44:01.359Z,7.20
2023-01-09T21:48:06.137Z,7.20
2023-01-09T21:52:10.861Z,7.10
2023-01-09T21:56:13.722Z,7.10
2023-01-09T22:00:17.047Z,7.00
2023-01-09T22:04:22.283Z,7.00
2023-01-09T22:08:25.443Z,7.00
2023-01-09T22:12:28.221Z,6.90
2023-01-09T22:16:31.152Z,6.90
2023-01-09T22:20:35.359Z,6.90
2023-01-09T22:24:38.248Z,6.90
2023-01-09T22:28:41.220Z,6.90
2023-01-09T22:32:44.070Z,6.90
2023-01-09T22:36:48.592Z,6.90
2023-01-09T22:40:51.434Z,6.90
2023-01-09T22:44:54.662Z,7.00
2023-01-09T22:48:59.059Z,7.00
2023-01-09T22:53:03.205Z,7.00
2023-01-09T22:57:06.059Z,7.00
2023-01-09T23:01:10.922Z,7.00
2023-01-09T23:05:13.775Z,7.00
2023-01-09T23:09:17.895Z,7.10
2023-01-09T23:13:20.725Z,7.10
2023-01-09T23:17:23.559Z,7.10
2023-01-09T23:21:26.399Z,7.10
2023-01-09T23:25:31.101Z,7.10
2023-01-09T23:29:33.919Z,7.10
2023-01-09T23:33:41.578Z,7.10
2023-01-09T23:37:44.574Z,7.10
2023-01-09T23:42:06.011Z,7.10
2023-01-09T23:46:08.862Z,7.10
2023-01-09T23:50:12.464Z,7.20
2023-01-09T23:54:16.100Z,7.10
2023-01-09T23:58:20.253Z,7.10
